sensor_id;sensor_type;location;lat;lon;timestamp;temperature;humidity
1123;DHT22;548;48.778;9.252;2022-09-09T03:43:26;15.00;99.90
1123;DHT22;548;48.778;9.252;2022-09-09T03:45:54;15.20;99.90
1123;DHT22;548;48.778;9.252;2022-09-09T03:48:22;15.20;99.90
1123;DHT22;548;48.778;9.252;2022-09-09T03:50:51;15.30;99.90
1123;DHT22;548;48.778;9.252;2022-09-09T03:53:20;15.40;99.90
1123;DHT22;548;48.778;9.252;2022-09-09T03:55:48;15.40;99.90
1123;DHT22;548;48.778;9.252;2022-09-09T03:58:16;15.40;99.90
1123;DHT22;548;48.778;9.252;2022-09-09T04:00:52;15.40;99.90
1123;DHT22;548;48.778;9.252;2022-09-09T04:03:19;15.30;99.90
1123;DHT22;548;48.778;9.252;2022-09-09T04:05:48;15.30;99.90
1123;DHT22;548;48.778;9.252;2022-09-09T04:08:15;15.30;99.90
1123;DHT22;548;48.778;9.252;2022-09-09T04:10:41;15.30;99.90
1123;DHT22;548;48.778;9.252;2022-09-09T04:13:08;15.30;99.90
1123;DHT22;548;48.778;9.252;2022-09-09T04:15:35;15.20;99.90
1123;DHT22;548;48.778;9.252;2022-09-09T04:18:03;15.10;99.90
1123;DHT22;548;48.778;9.252;2022-09-09T04:20:31;15.10;99.90
1123;DHT22;548;48.778;9.252;2022-09-09T04:22:58;15.10;99.90
1123;DHT22;548;48.778;9.252;2022-09-09T04:25:25;15.00;99.90
1123;DHT22;548;48.778;9.252;2022-09-09T04:27:53;15.00;99.90
1123;DHT22;548;48.778;9.252;2022-09-09T04:30:20;15.00;99.90
1123;DHT22;548;48.778;9.252;2022-09-09T04:32:47;15.00;99.90
1123;DHT22;548;48.778;9.252;2022-09-09T04:35:15;15.00;99.90
1123;DHT22;548;48.778;9.252;2022-09-09T04:37:42;15.00;99.90
1123;DHT22;548;48.778;9.252;2022-09-09T04:40:10;15.00;99.90
1123;DHT22;548;48.778;9.252;2022-09-09T04:42:37;15.10;99.90
1123;DHT22;548;48.778;9.252;2022-09-09T04:45:04;15.20;99.90
1123;DHT22;548;48.778;9.252;2022-09-09T04:47:32;15.20;99.90
1123;DHT22;548;48.778;9.252;2022-09-09T04:50:00;15.30;99.90
1123;DHT22;548;48.778;9.252;2022-09-09T04:52:28;15.40;99.90
1123;DHT22;548;48.778;9.252;2022-09-09T04:54:55;15.50;99.90
1123;DHT22;548;48.778;9.252;2022-09-09T04:57:21;15.50;99.90
1123;DHT22;548;48.778;9.252;2022-09-09T04:59:48;15.60;99.90
1123;DHT22;548;48.778;9.252;2022-09-09T05:02:15;15.60;99.90
1123;DHT22;548;48.778;9.252;2022-09-09T05:04:42;15.60;99.90
1123;DHT22;548;48.778;9.252;2022-09-09T05:07:08;15.60;99.90
1123;DHT22;548;48.778;9.252;2022-09-09T05:09:37;15.50;99.90
1123;DHT22;548;48.778;9.252;2022-09-09T05:12:04;15.40;99.90
1123;DHT22;548;48.778;9.252;2022-09-09T05:14:30;15.40;99.90
1123;DHT22;548;48.778;9.252;2022-09-09T05:16:57;15.40;99.90
1123;DHT22;548;48.778;9.252;2022-09-09T05:19:24;15.40;99.90
1123;DHT22;548;48.778;9.252;2022-09-09T05:21:50;15.40;99.90
1123;DHT22;548;48.778;9.252;2022-09-09T05:24:17;15.60;99.90
1123;DHT22;548;48.778;9.252;2022-09-09T05:26:45;15.70;99.90
1123;DHT22;548;48.778;9.252;2022-09-09T05:29:12;15.90;99.90
1123;DHT22;548;48.778;9.252;2022-09-09T05:31:39;16.00;99.90
1123;DHT22;548;48.778;9.252;2022-09-09T05:34:06;16.10;99.90
1123;DHT22;548;48.778;9.252;2022-09-09T05:36:33;16.20;99.90
1123;DHT22;548;48.778;9.252;2022-09-09T05:39:00;16.30;99.90
1123;DHT22;548;48.778;9.252;2022-09-09T05:41:26;16.30;99.90
1123;DHT22;548;48.778;9.252;2022-09-09T05:43:55;16.40;99.90
1123;DHT22;548;48.778;9.252;2022-09-09T05:46:24;16.40;99.90
1123;DHT22;548;48.778;9.252;2022-09-09T05:48:51;16.40;99.90
1123;DHT22;548;48.778;9.252;2022-09-09T05:51:20;16.60;99.90
1123;DHT22;548;48.778;9.252;2022-09-09T05:53:47;16.60;99.90
1123;DHT22;548;48.778;9.252;2022-09-09T05:56:16;16.70;99.90
1123;DHT22;548;48.778;9.252;2022-09-09T05:58:44;16.80;99.90
1123;DHT22;548;48.778;9.252;2022-09-09T06:01:15;16.80;99.90
1123;DHT22;548;48.778;9.252;2022-09-09T06:03:43;16.80;99.90
1123;DHT22;548;48.778;9.252;2022-09-09T06:06:12;16.80;99.90
1123;DHT22;548;48.778;9.252;2022-09-09T06:08:41;16.80;99.90
1123;DHT22;548;48.778;9.252;2022-09-09T06:11:11;16.80;99.90
1123;DHT22;548;48.778;9.252;2022-09-09T06:13:38;16.90;99.90
1123;DHT22;548;48.778;9.252;2022-09-09T06:16:06;16.90;99.90
1123;DHT22;548;48.778;9.252;2022-09-09T06:18:35;16.90;99.90
1123;DHT22;548;48.778;9.252;2022-09-09T06:21:04;16.90;99.90
1123;DHT22;548;48.778;9.252;2022-09-09T06:23:32;17.00;99.90
1123;DHT22;548;48.778;9.252;2022-09-09T06:26:04;17.20;99.90
1123;DHT22;548;48.778;9.252;2022-09-09T06:28:32;17.20;99.90
1123;DHT22;548;48.778;9.252;2022-09-09T06:30:59;17.30;99.90
1123;DHT22;548;48.778;9.252;2022-09-09T06:33:26;17.30;99.90
1123;DHT22;548;48.778;9.252;2022-09-09T06:35:54;17.30;99.90
1123;DHT22;548;48.778;9.252;2022-09-09T06:38:22;17.40;99.90
1123;DHT22;548;48.778;9.252;2022-09-09T06:40:51;17.50;99.90
1123;DHT22;548;48.778;9.252;2022-09-09T06:45:53;18.00;99.90
1123;DHT22;548;48.778;9.252;2022-09-09T06:48:20;18.20;99.90
1123;DHT22;548;48.778;9.252;2022-09-09T06:50:46;18.20;99.90
1123;DHT22;548;48.778;9.252;2022-09-09T06:53:17;18.20;99.90
1123;DHT22;548;48.778;9.252;2022-09-09T06:55:44;18.20;99.90
1123;DHT22;548;48.778;9.252;2022-09-09T06:58:12;18.30;99.90
1123;DHT22;548;48.778;9.252;2022-09-09T07:00:38;18.40;99.90
1123;DHT22;548;48.778;9.252;2022-09-09T07:03:05;18.70;99.90
1123;DHT22;548;48.778;9.252;2022-09-09T07:05:32;18.80;99.90
1123;DHT22;548;48.778;9.252;2022-09-09T07:07:58;18.90;99.90
1123;DHT22;548;48.778;9.252;2022-09-09T07:10:26;19.00;99.90
1123;DHT22;548;48.778;9.252;2022-09-09T07:12:53;19.10;99.90
1123;DHT22;548;48.778;9.252;2022-09-09T07:15:20;19.30;99.90
1123;DHT22;548;48.778;9.252;2022-09-09T07:17:48;19.40;99.90
1123;DHT22;548;48.778;9.252;2022-09-09T07:20:15;19.30;99.90
1123;DHT22;548;48.778;9.252;2022-09-09T07:22:42;19.40;99.90
1123;DHT22;548;48.778;9.252;2022-09-09T07:25:08;19.50;99.90
1123;DHT22;548;48.778;9.252;2022-09-09T07:27:37;19.60;99.90
1123;DHT22;548;48.778;9.252;2022-09-09T07:30:04;19.70;99.90
1123;DHT22;548;48.778;9.252;2022-09-09T07:32:31;19.70;99.90
1123;DHT22;548;48.778;9.252;2022-09-09T07:34:58;19.70;99.90
1123;DHT22;548;48.778;9.252;2022-09-09T07:37:25;19.70;99.90
1123;DHT22;548;48.778;9.252;2022-09-09T07:39:52;19.70;99.90
1123;DHT22;548;48.778;9.252;2022-09-09T07:42:19;19.80;99.90
1123;DHT22;548;48.778;9.252;2022-09-09T07:44:47;19.60;99.90
1123;DHT22;548;48.778;9.252;2022-09-09T07:47:13;19.70;99.90
1123;DHT22;548;48.778;9.252;2022-09-09T07:49:40;19.80;99.90
1123;DHT22;548;48.778;9.252;2022-09-09T07:52:07;20.40;99.90
1123;DHT22;548;48.778;9.252;2022-09-09T07:54:34;20.70;99.90
1123;DHT22;548;48.778;9.252;2022-09-09T07:57:00;20.80;99.90
1123;DHT22;548;48.778;9.252;2022-09-09T07:59:29;20.80;99.90
1123;DHT22;548;48.778;9.252;2022-09-09T08:01:57;20.80;99.90
1123;DHT22;548;48.778;9.252;2022-09-09T08:04:25;20.90;99.90
1123;DHT22;548;48.778;9.252;2022-09-09T08:06:56;21.00;99.90
1123;DHT22;548;48.778;9.252;2022-09-09T08:09:24;21.90;99.90
1123;DHT22;548;48.778;9.252;2022-09-09T08:11:52;22.30;99.90
1123;DHT22;548;48.778;9.252;2022-09-09T08:14:19;22.80;99.90
1123;DHT22;548;48.778;9.252;2022-09-09T08:16:47;23.20;99.90
1123;DHT22;548;48.778;9.252;2022-09-09T08:19:16;23.10;99.90
1123;DHT22;548;48.778;9.252;2022-09-09T08:21:44;22.60;99.90
1123;DHT22;548;48.778;9.252;2022-09-09T08:24:12;22.20;99.90
1123;DHT22;548;48.778;9.252;2022-09-09T08:26:41;22.80;99.90
1123;DHT22;548;48.778;9.252;2022-09-09T08:29:09;23.30;99.90
1123;DHT22;548;48.778;9.252;2022-09-09T08:31:38;24.00;99.40
1123;DHT22;548;48.778;9.252;2022-09-09T08:34:06;24.50;97.90
1123;DHT22;548;48.778;9.252;2022-09-09T08:36:36;25.00;97.30
1123;DHT22;548;48.778;9.252;2022-09-09T08:39:05;25.40;95.20
1123;DHT22;548;48.778;9.252;2022-09-09T08:41:43;26.10;93.90
1123;DHT22;548;48.778;9.252;2022-09-09T08:44:17;26.10;93.40
1123;DHT22;548;48.778;9.252;2022-09-09T08:46:51;26.50;94.60
1123;DHT22;548;48.778;9.252;2022-09-09T08:52:17;26.90;91.30
1123;DHT22;548;48.778;9.252;2022-09-09T08:54:46;27.60;89.90
1123;DHT22;548;48.778;9.252;2022-09-09T08:57:17;28.00;88.10
1123;DHT22;548;48.778;9.252;2022-09-09T08:59:46;28.40;84.50
1123;DHT22;548;48.778;9.252;2022-09-09T09:02:17;28.70;83.20
1123;DHT22;548;48.778;9.252;2022-09-09T09:04:59;28.30;83.40
1123;DHT22;548;48.778;9.252;2022-09-09T09:07:44;29.30;80.00
1123;DHT22;548;48.778;9.252;2022-09-09T09:10:20;30.10;76.70
1123;DHT22;548;48.778;9.252;2022-09-09T09:12:52;29.90;75.90
1123;DHT22;548;48.778;9.252;2022-09-09T09:15:23;30.10;73.80
1123;DHT22;548;48.778;9.252;2022-09-09T09:17:50;30.10;72.00
1123;DHT22;548;48.778;9.252;2022-09-09T09:20:20;29.90;73.50
1123;DHT22;548;48.778;9.252;2022-09-09T09:22:52;30.00;72.10
1123;DHT22;548;48.778;9.252;2022-09-09T09:25:22;28.90;73.70
1123;DHT22;548;48.778;9.252;2022-09-09T09:27:58;28.50;73.20
1123;DHT22;548;48.778;9.252;2022-09-09T09:30:31;28.40;73.80
1123;DHT22;548;48.778;9.252;2022-09-09T09:33:02;28.30;74.50
1123;DHT22;548;48.778;9.252;2022-09-09T09:35:32;26.80;77.40
1123;DHT22;548;48.778;9.252;2022-09-09T09:38:00;25.30;81.20
1123;DHT22;548;48.778;9.252;2022-09-09T09:40:28;23.50;86.70
1123;DHT22;548;48.778;9.252;2022-09-09T09:42:59;21.90;97.90
1123;DHT22;548;48.778;9.252;2022-09-09T09:45:29;20.60;99.90
1123;DHT22;548;48.778;9.252;2022-09-09T09:48:00;20.50;99.90
1123;DHT22;548;48.778;9.252;2022-09-09T09:50:27;21.10;99.90
1123;DHT22;548;48.778;9.252;2022-09-09T09:52:55;21.50;99.90
1123;DHT22;548;48.778;9.252;2022-09-09T09:55:24;22.10;99.90
1123;DHT22;548;48.778;9.252;2022-09-09T09:57:51;22.60;99.90
1123;DHT22;548;48.778;9.252;2022-09-09T10:00:21;23.20;99.90
1123;DHT22;548;48.778;9.252;2022-09-09T10:02:48;23.90;99.90
1123;DHT22;548;48.778;9.252;2022-09-09T10:05:19;25.30;98.90
1123;DHT22;548;48.778;9.252;2022-09-09T10:07:57;26.30;95.60
1123;DHT22;548;48.778;9.252;2022-09-09T10:10:45;27.60;93.70
1123;DHT22;548;48.778;9.252;2022-09-09T10:13:19;28.20;89.70
1123;DHT22;548;48.778;9.252;2022-09-09T10:15:57;29.20;84.00
1123;DHT22;548;48.778;9.252;2022-09-09T10:18:39;29.20;85.00
1123;DHT22;548;48.778;9.252;2022-09-09T10:21:15;29.90;82.50
1123;DHT22;548;48.778;9.252;2022-09-09T10:24:07;31.00;79.90
1123;DHT22;548;48.778;9.252;2022-09-09T10:26:47;31.60;74.90
1123;DHT22;548;48.778;9.252;2022-09-09T10:29:37;31.80;72.90
1123;DHT22;548;48.778;9.252;2022-09-09T10:32:22;32.10;74.00
1123;DHT22;548;48.778;9.252;2022-09-09T10:34:56;32.90;71.80
1123;DHT22;548;48.778;9.252;2022-09-09T10:37:39;32.80;64.20
1123;DHT22;548;48.778;9.252;2022-09-09T10:40:22;32.80;64.70
1123;DHT22;548;48.778;9.252;2022-09-09T10:43:07;32.80;63.20
1123;DHT22;548;48.778;9.252;2022-09-09T10:45:45;33.00;63.30
1123;DHT22;548;48.778;9.252;2022-09-09T10:48:31;32.90;60.80
1123;DHT22;548;48.778;9.252;2022-09-09T10:51:08;32.50;61.60
1123;DHT22;548;48.778;9.252;2022-09-09T10:53:49;32.30;70.40
1123;DHT22;548;48.778;9.252;2022-09-09T10:56:20;32.30;62.50
1123;DHT22;548;48.778;9.252;2022-09-09T10:58:53;31.70;60.60
1123;DHT22;548;48.778;9.252;2022-09-09T11:01:25;30.00;65.20
1123;DHT22;548;48.778;9.252;2022-09-09T11:03:56;28.80;69.70
1123;DHT22;548;48.778;9.252;2022-09-09T11:06:30;27.80;71.60
1123;DHT22;548;48.778;9.252;2022-09-09T11:08:58;27.70;74.90
1123;DHT22;548;48.778;9.252;2022-09-09T11:11:29;29.80;71.40
1123;DHT22;548;48.778;9.252;2022-09-09T11:14:03;31.90;64.40
1123;DHT22;548;48.778;9.252;2022-09-09T11:16:39;31.80;62.20
1123;DHT22;548;48.778;9.252;2022-09-09T11:19:15;29.90;66.50
1123;DHT22;548;48.778;9.252;2022-09-09T11:21:46;28.60;69.90
1123;DHT22;548;48.778;9.252;2022-09-09T11:24:16;28.00;73.00
1123;DHT22;548;48.778;9.252;2022-09-09T11:26:47;27.30;79.00
1123;DHT22;548;48.778;9.252;2022-09-09T11:32:36;26.90;82.50
1123;DHT22;548;48.778;9.252;2022-09-09T11:35:22;27.00;74.60
1123;DHT22;548;48.778;9.252;2022-09-09T11:38:13;25.70;76.10
1123;DHT22;548;48.778;9.252;2022-09-09T11:40:43;24.60;74.80
1123;DHT22;548;48.778;9.252;2022-09-09T11:43:14;24.00;76.30
1123;DHT22;548;48.778;9.252;2022-09-09T11:45:51;23.40;80.00
1123;DHT22;548;48.778;9.252;2022-09-09T11:48:32;23.10;82.70
1123;DHT22;548;48.778;9.252;2022-09-09T11:51:05;23.10;84.10
1123;DHT22;548;48.778;9.252;2022-09-09T11:53:33;23.20;83.90
1123;DHT22;548;48.778;9.252;2022-09-09T11:56:09;23.30;82.10
1123;DHT22;548;48.778;9.252;2022-09-09T11:58:43;23.50;81.30
1123;DHT22;548;48.778;9.252;2022-09-09T12:01:34;23.60;87.90
1123;DHT22;548;48.778;9.252;2022-09-09T12:06:51;24.40;81.10
1123;DHT22;548;48.778;9.252;2022-09-09T12:09:27;24.50;79.10
1123;DHT22;548;48.778;9.252;2022-09-09T12:12:21;24.90;76.20
1123;DHT22;548;48.778;9.252;2022-09-09T12:14:56;26.30;73.80
1123;DHT22;548;48.778;9.252;2022-09-09T12:17:27;27.80;70.00
1123;DHT22;548;48.778;9.252;2022-09-09T12:20:04;29.30;62.90
1123;DHT22;548;48.778;9.252;2022-09-09T12:22:40;28.70;62.50
1123;DHT22;548;48.778;9.252;2022-09-09T12:25:18;28.40;64.00
1123;DHT22;548;48.778;9.252;2022-09-09T12:27:59;27.10;65.50
1123;DHT22;548;48.778;9.252;2022-09-09T12:30:29;26.40;68.30
1123;DHT22;548;48.778;9.252;2022-09-09T12:33:10;27.40;65.30
1123;DHT22;548;48.778;9.252;2022-09-09T12:35:38;30.40;65.70
1123;DHT22;548;48.778;9.252;2022-09-09T12:38:10;30.50;57.70
1123;DHT22;548;48.778;9.252;2022-09-09T12:40:39;30.80;56.50
1123;DHT22;548;48.778;9.252;2022-09-09T12:43:17;31.70;55.50
1123;DHT22;548;48.778;9.252;2022-09-09T12:45:45;32.60;53.10
1123;DHT22;548;48.778;9.252;2022-09-09T12:48:18;32.80;53.20
1123;DHT22;548;48.778;9.252;2022-09-09T12:50:48;33.00;50.50
1123;DHT22;548;48.778;9.252;2022-09-09T12:53:22;32.10;51.40
1123;DHT22;548;48.778;9.252;2022-09-09T12:55:54;30.70;51.70
1123;DHT22;548;48.778;9.252;2022-09-09T12:58:22;29.90;54.30
1123;DHT22;548;48.778;9.252;2022-09-09T13:00:51;29.10;55.30
1123;DHT22;548;48.778;9.252;2022-09-09T13:03:20;28.30;62.60
1123;DHT22;548;48.778;9.252;2022-09-09T13:05:48;28.40;59.00
1123;DHT22;548;48.778;9.252;2022-09-09T13:08:16;29.00;58.00
1123;DHT22;548;48.778;9.252;2022-09-09T13:10:47;29.00;58.00
1123;DHT22;548;48.778;9.252;2022-09-09T13:13:18;28.00;58.50
1123;DHT22;548;48.778;9.252;2022-09-09T13:15:51;27.30;59.70
1123;DHT22;548;48.778;9.252;2022-09-09T13:18:22;26.30;61.60
1123;DHT22;548;48.778;9.252;2022-09-09T13:20:50;25.70;65.20
1123;DHT22;548;48.778;9.252;2022-09-09T13:23:18;25.40;66.60
1123;DHT22;548;48.778;9.252;2022-09-09T13:25:54;25.10;67.60
1123;DHT22;548;48.778;9.252;2022-09-09T13:28:23;25.00;67.50
1123;DHT22;548;48.778;9.252;2022-09-09T13:30:57;25.00;68.10
1123;DHT22;548;48.778;9.252;2022-09-09T13:33:31;25.30;73.30
1123;DHT22;548;48.778;9.252;2022-09-09T13:36:01;26.30;72.10
1123;DHT22;548;48.778;9.252;2022-09-09T13:38:32;26.60;64.70
1123;DHT22;548;48.778;9.252;2022-09-09T13:41:01;28.10;61.30
1123;DHT22;548;48.778;9.252;2022-09-09T13:43:31;28.80;59.30
1123;DHT22;548;48.778;9.252;2022-09-09T13:46:00;29.00;58.20
1123;DHT22;548;48.778;9.252;2022-09-09T13:48:29;28.50;57.50
1123;DHT22;548;48.778;9.252;2022-09-09T13:50:59;28.00;58.40
1123;DHT22;548;48.778;9.252;2022-09-09T13:53:26;26.60;59.30
1123;DHT22;548;48.778;9.252;2022-09-09T13:55:53;25.60;61.80
1123;DHT22;548;48.778;9.252;2022-09-09T13:58:22;24.90;64.30
1123;DHT22;548;48.778;9.252;2022-09-09T14:00:50;24.90;65.40
1123;DHT22;548;48.778;9.252;2022-09-09T14:03:17;25.00;65.20
1123;DHT22;548;48.778;9.252;2022-09-09T14:05:45;25.10;66.80
1123;DHT22;548;48.778;9.252;2022-09-09T14:08:20;25.50;65.90
1123;DHT22;548;48.778;9.252;2022-09-09T14:10:48;25.90;65.40
1123;DHT22;548;48.778;9.252;2022-09-09T14:13:14;26.00;66.10
1123;DHT22;548;48.778;9.252;2022-09-09T14:15:41;25.80;66.20
1123;DHT22;548;48.778;9.252;2022-09-09T14:18:11;25.10;66.40
1123;DHT22;548;48.778;9.252;2022-09-09T14:20:37;24.80;68.30
1123;DHT22;548;48.778;9.252;2022-09-09T14:23:05;24.50;68.60
1123;DHT22;548;48.778;9.252;2022-09-09T14:25:32;24.50;69.80
1123;DHT22;548;48.778;9.252;2022-09-09T14:28:00;24.60;68.00
1123;DHT22;548;48.778;9.252;2022-09-09T14:30:27;24.50;68.70
1123;DHT22;548;48.778;9.252;2022-09-09T14:32:54;24.30;67.70
1123;DHT22;548;48.778;9.252;2022-09-09T14:35:20;24.10;68.40
1123;DHT22;548;48.778;9.252;2022-09-09T14:37:47;24.10;68.30
1123;DHT22;548;48.778;9.252;2022-09-09T14:40:16;24.00;68.80
1123;DHT22;548;48.778;9.252;2022-09-09T14:42:42;24.10;68.60
1123;DHT22;548;48.778;9.252;2022-09-09T14:45:11;24.30;67.70
1123;DHT22;548;48.778;9.252;2022-09-09T14:47:37;24.40;67.70
1123;DHT22;548;48.778;9.252;2022-09-09T14:50:05;24.10;67.00
1123;DHT22;548;48.778;9.252;2022-09-09T14:52:33;24.00;66.80
1123;DHT22;548;48.778;9.252;2022-09-09T14:55:00;23.90;67.30
1123;DHT22;548;48.778;9.252;2022-09-09T14:57:28;23.90;67.50
1123;DHT22;548;48.778;9.252;2022-09-09T14:59:55;23.90;68.20
1123;DHT22;548;48.778;9.252;2022-09-09T15:02:22;23.70;69.50
1123;DHT22;548;48.778;9.252;2022-09-09T15:04:49;23.40;70.10
1123;DHT22;548;48.778;9.252;2022-09-09T15:07:20;23.30;70.00
1123;DHT22;548;48.778;9.252;2022-09-09T15:09:47;23.30;69.70
1123;DHT22;548;48.778;9.252;2022-09-09T15:12:14;23.40;69.70
1123;DHT22;548;48.778;9.252;2022-09-09T15:14:45;23.60;69.70
1123;DHT22;548;48.778;9.252;2022-09-09T15:17:13;23.80;69.60
1123;DHT22;548;48.778;9.252;2022-09-09T15:19:39;23.80;70.10
1123;DHT22;548;48.778;9.252;2022-09-09T15:22:08;23.80;69.30
1123;DHT22;548;48.778;9.252;2022-09-09T15:24:35;23.70;68.90
1123;DHT22;548;48.778;9.252;2022-09-09T15:27:02;23.60;68.50
1123;DHT22;548;48.778;9.252;2022-09-09T15:29:29;23.60;69.20
1123;DHT22;548;48.778;9.252;2022-09-09T15:31:57;23.50;69.10
1123;DHT22;548;48.778;9.252;2022-09-09T15:34:23;23.40;69.70
1123;DHT22;548;48.778;9.252;2022-09-09T15:36:50;23.40;70.30
1123;DHT22;548;48.778;9.252;2022-09-09T15:39:18;23.50;69.60
1123;DHT22;548;48.778;9.252;2022-09-09T15:41:45;23.50;70.40
1123;DHT22;548;48.778;9.252;2022-09-09T15:44:13;23.90;75.80
1123;DHT22;548;48.778;9.252;2022-09-09T15:46:42;23.70;69.50
1123;DHT22;548;48.778;9.252;2022-09-09T15:49:12;23.50;70.10
1123;DHT22;548;48.778;9.252;2022-09-09T15:51:41;23.50;70.70
1123;DHT22;548;48.778;9.252;2022-09-09T15:54:10;23.30;70.90
1123;DHT22;548;48.778;9.252;2022-09-09T15:56:37;23.20;72.10
1123;DHT22;548;48.778;9.252;2022-09-09T15:59:04;23.00;72.60
1123;DHT22;548;48.778;9.252;2022-09-09T16:01:31;22.80;72.40
1123;DHT22;548;48.778;9.252;2022-09-09T16:03:59;22.80;80.50
1123;DHT22;548;48.778;9.252;2022-09-09T16:06:28;22.50;73.00
1123;DHT22;548;48.778;9.252;2022-09-09T16:08:57;22.50;73.00
1123;DHT22;548;48.778;9.252;2022-09-09T16:11:26;22.40;73.60
1123;DHT22;548;48.778;9.252;2022-09-09T16:13:54;22.30;73.70
1123;DHT22;548;48.778;9.252;2022-09-09T16:16:23;22.10;80.60
1123;DHT22;548;48.778;9.252;2022-09-09T16:18:51;22.30;73.60
1123;DHT22;548;48.778;9.252;2022-09-09T16:21:20;22.30;74.20
1123;DHT22;548;48.778;9.252;2022-09-09T16:23:49;22.30;74.60
1123;DHT22;548;48.778;9.252;2022-09-09T16:26:17;22.30;74.50
1123;DHT22;548;48.778;9.252;2022-09-09T16:28:45;22.30;74.60
1123;DHT22;548;48.778;9.252;2022-09-09T16:31:14;22.30;74.50
1123;DHT22;548;48.778;9.252;2022-09-09T16:33:41;22.30;75.20
1123;DHT22;548;48.778;9.252;2022-09-09T16:36:10;22.20;74.80
1123;DHT22;548;48.778;9.252;2022-09-09T16:38:37;22.20;75.10
1123;DHT22;548;48.778;9.252;2022-09-09T16:41:07;22.10;75.50
1123;DHT22;548;48.778;9.252;2022-09-09T16:43:34;22.10;75.60
1123;DHT22;548;48.778;9.252;2022-09-09T16:46:01;22.10;76.20
1123;DHT22;548;48.778;9.252;2022-09-09T16:48:31;21.20;76.50
1123;DHT22;548;48.778;9.252;2022-09-09T16:51:01;22.00;79.90
1123;DHT22;548;48.778;9.252;2022-09-09T16:53:29;21.90;81.90
1123;DHT22;548;48.778;9.252;2022-09-09T16:55:56;21.80;82.20
1123;DHT22;548;48.778;9.252;2022-09-09T16:58:24;21.70;82.90
1123;DHT22;548;48.778;9.252;2022-09-09T17:00:50;21.60;83.70
1123;DHT22;548;48.778;9.252;2022-09-09T17:03:17;21.60;81.20
1123;DHT22;548;48.778;9.252;2022-09-09T17:05:44;21.40;80.40
1123;DHT22;548;48.778;9.252;2022-09-09T17:08:11;21.20;81.00
1123;DHT22;548;48.778;9.252;2022-09-09T17:10:40;21.10;81.70
1123;DHT22;548;48.778;9.252;2022-09-09T17:13:08;21.00;81.90
1123;DHT22;548;48.778;9.252;2022-09-09T17:15:40;20.90;83.00
1123;DHT22;548;48.778;9.252;2022-09-09T17:18:08;20.90;83.20
1123;DHT22;548;48.778;9.252;2022-09-09T17:20:35;20.70;83.70
1123;DHT22;548;48.778;9.252;2022-09-09T17:23:02;20.50;84.70
1123;DHT22;548;48.778;9.252;2022-09-09T17:25:29;20.30;85.80
1123;DHT22;548;48.778;9.252;2022-09-09T17:27:56;20.20;87.40
1123;DHT22;548;48.778;9.252;2022-09-09T17:30:23;20.00;88.70
1123;DHT22;548;48.778;9.252;2022-09-09T17:32:52;19.90;90.10
1123;DHT22;548;48.778;9.252;2022-09-09T17:35:18;19.80;90.90
1123;DHT22;548;48.778;9.252;2022-09-09T17:37:45;19.80;91.80
1123;DHT22;548;48.778;9.252;2022-09-09T17:40:12;19.60;92.00
1123;DHT22;548;48.778;9.252;2022-09-09T17:42:39;19.60;92.20
1123;DHT22;548;48.778;9.252;2022-09-09T17:45:08;19.60;93.10
1123;DHT22;548;48.778;9.252;2022-09-09T17:47:35;19.60;93.70
1123;DHT22;548;48.778;9.252;2022-09-09T17:50:04;19.50;94.00
1123;DHT22;548;48.778;9.252;2022-09-09T17:52:32;19.50;94.60
1123;DHT22;548;48.778;9.252;2022-09-09T17:54:58;19.50;95.10
1123;DHT22;548;48.778;9.252;2022-09-09T17:57:25;19.50;95.40
1123;DHT22;548;48.778;9.252;2022-09-09T17:59:53;19.60;95.70
1123;DHT22;548;48.778;9.252;2022-09-09T18:02:19;19.60;95.90
1123;DHT22;548;48.778;9.252;2022-09-09T18:04:46;19.60;96.40
1123;DHT22;548;48.778;9.252;2022-09-09T18:07:15;19.40;96.90
1123;DHT22;548;48.778;9.252;2022-09-09T18:09:41;19.30;97.40
1123;DHT22;548;48.778;9.252;2022-09-09T18:12:08;19.20;97.90
1123;DHT22;548;48.778;9.252;2022-09-09T18:14:38;19.20;98.40
1123;DHT22;548;48.778;9.252;2022-09-09T18:17:05;19.10;99.00
1123;DHT22;548;48.778;9.252;2022-09-09T18:19:33;19.10;99.30
1123;DHT22;548;48.778;9.252;2022-09-09T18:22:02;19.10;99.30
1123;DHT22;548;48.778;9.252;2022-09-09T18:24:31;19.20;99.90
1123;DHT22;548;48.778;9.252;2022-09-09T18:26:58;19.10;99.50
1123;DHT22;548;48.778;9.252;2022-09-09T18:29:25;19.30;99.40
1123;DHT22;548;48.778;9.252;2022-09-09T18:31:52;19.20;99.30
1123;DHT22;548;48.778;9.252;2022-09-09T18:34:20;19.20;99.50
1123;DHT22;548;48.778;9.252;2022-09-09T18:36:49;19.20;99.90
1123;DHT22;548;48.778;9.252;2022-09-09T18:39:19;19.20;99.70
1123;DHT22;548;48.778;9.252;2022-09-09T18:41:48;19.20;99.90
1123;DHT22;548;48.778;9.252;2022-09-09T18:44:19;19.20;99.40
1123;DHT22;548;48.778;9.252;2022-09-09T18:46:46;19.10;99.80
1123;DHT22;548;48.778;9.252;2022-09-09T18:49:15;19.10;99.90
1123;DHT22;548;48.778;9.252;2022-09-09T18:51:44;19.10;99.70
1123;DHT22;548;48.778;9.252;2022-09-09T18:54:13;19.20;99.80
1123;DHT22;548;48.778;9.252;2022-09-09T18:56:41;19.20;99.80
1123;DHT22;548;48.778;9.252;2022-09-09T18:59:11;19.20;99.90
1123;DHT22;548;48.778;9.252;2022-09-09T19:01:38;19.20;99.90
1123;DHT22;548;48.778;9.252;2022-09-09T19:04:06;19.20;99.90
1123;DHT22;548;48.778;9.252;2022-09-09T19:06:36;19.30;99.90
1123;DHT22;548;48.778;9.252;2022-09-09T19:09:03;19.20;99.90
1123;DHT22;548;48.778;9.252;2022-09-09T19:11:30;19.20;99.90
1123;DHT22;548;48.778;9.252;2022-09-09T19:13:58;19.40;99.90
1123;DHT22;548;48.778;9.252;2022-09-09T19:16:29;19.10;99.90
1123;DHT22;548;48.778;9.252;2022-09-09T19:18:57;19.10;99.90
1123;DHT22;548;48.778;9.252;2022-09-09T19:21:27;19.00;99.90
1123;DHT22;548;48.778;9.252;2022-09-09T19:23:57;18.80;99.90
1123;DHT22;548;48.778;9.252;2022-09-09T19:26:25;18.90;99.90
1123;DHT22;548;48.778;9.252;2022-09-09T19:28:52;18.90;99.90
1123;DHT22;548;48.778;9.252;2022-09-09T19:31:19;18.90;99.90
1123;DHT22;548;48.778;9.252;2022-09-09T19:33:48;18.90;99.90
1123;DHT22;548;48.778;9.252;2022-09-09T19:36:17;18.90;99.90
1123;DHT22;548;48.778;9.252;2022-09-09T19:38:45;18.90;99.90
1123;DHT22;548;48.778;9.252;2022-09-09T19:41:13;18.80;99.90
1123;DHT22;548;48.778;9.252;2022-09-09T19:43:41;18.80;99.90
1123;DHT22;548;48.778;9.252;2022-09-09T19:46:09;18.80;99.90
1123;DHT22;548;48.778;9.252;2022-09-09T19:48:39;18.70;99.90
1123;DHT22;548;48.778;9.252;2022-09-09T19:51:09;18.50;99.90
1123;DHT22;548;48.778;9.252;2022-09-09T19:53:37;18.40;99.90
1123;DHT22;548;48.778;9.252;2022-09-09T19:56:05;18.30;99.90
1123;DHT22;548;48.778;9.252;2022-09-09T19:58:34;18.30;99.90
1123;DHT22;548;48.778;9.252;2022-09-09T20:01:06;18.30;99.90
1123;DHT22;548;48.778;9.252;2022-09-09T20:03:34;18.30;99.90
1123;DHT22;548;48.778;9.252;2022-09-09T20:06:04;18.30;99.90
1123;DHT22;548;48.778;9.252;2022-09-09T20:08:33;18.20;99.90
1123;DHT22;548;48.778;9.252;2022-09-09T20:11:00;18.20;99.90
1123;DHT22;548;48.778;9.252;2022-09-09T20:13:28;18.20;99.90
1123;DHT22;548;48.778;9.252;2022-09-09T20:15:56;18.10;99.90
1123;DHT22;548;48.778;9.252;2022-09-09T20:18:26;18.10;99.90
1123;DHT22;548;48.778;9.252;2022-09-09T20:20:57;18.00;99.90
1123;DHT22;548;48.778;9.252;2022-09-09T20:23:25;18.10;99.90
1123;DHT22;548;48.778;9.252;2022-09-09T20:25:54;18.00;99.90